Allouez, MI

4:57 PM EDT on October 23, 2014 (GMT -0400)
Sawyer International | Change Station
CLOSE
Current Station
Airport
Location: Gwinn,
Elevation: 1220 ft
Nearby Weather Stations

Elev 1220 ft 46.34 °N, 87.40 °W | Updated 12 minutes ago

Mostly Cloudy
Mostly Cloudy
48 °F
Feels Like 48 °F
N
12
Wind Variable Wind from South

Today
High -- | Low -- °F
--% Chance of Precip.
Yesterday
High -- | Low -- °F
Precip. -- in
8:23 AM 6:51 PM
Waning Crescent, 0% visible
Pressure 30.01 in
Visibility 10.0 miles
Clouds Scattered Clouds 3200 ft
Scattered Clouds 3900 ft
Overcast 8500 ft
Dew Point 43 °F
Humidity 82%
Rainfall 0.00 in
Snow Depth Not available.
UV 0 out of 12
Pollen .10 out of 12
Air Quality Not available.
Flu Activity Not available.
METAR KSAW 232045Z 19010KT 10SM RA SCT032 SCT039 OVC085 09/06 A3001

More Conditions Fewer Conditions

Pressure 30.01 in
Visibility 10.0 miles
Clouds Scattered Clouds 3200 ft
Scattered Clouds 3900 ft
Overcast 8500 ft
Dew Point 43 °F
Humidity 82%
Rainfall 0.00 in
Snow Depth Not available.
UV 0 out of 12
Pollen .10 out of 12
Air Quality Not available.
Flu Activity Not available.
METAR KSAW 232045Z 19010KT 10SM RA SCT032 SCT039 OVC085 09/06 A3001

More Conditions Fewer Conditions

10-Day Weather Forecast

Almanac

Astronomy

Oct. 23, 2014 Rise Set
Actual Time 8:23 AM EDT 6:51 PM EDT
Civil Twilight 7:52 AM EDT 7:22 PM EDT
Nautical Twilight 7:16 AM EDT 7:58 PM EDT
Astronomical Twilight 6:41 AM EDT 8:33 PM EDT
Moon 8:01 AM EDT 6:52 PM EDT
Length of Visible Light 11h 30m
Length of Day
10h 27m
Tomorrow will be 3m 11s shorter.
Waning Crescent, 0% of the Moon is Illuminated
Today
Waning Crescent
Oct 23
New
Oct 30
First Quarter
Nov 6
Full
Nov 14
Last Quarter

Today's Extremes

State Highs State Lows

Community

WunderPhotos

Upload Photos

1,764,362 photos uploaded!

WunderBlogs® & News

By Dr. Jeff Masters
Director of Meteorology, Weather Underground
By Kari Strenfel
Meteorologist, Weather Underground
By Christopher C. Burt
Weather Historian, Weather Underground
October 23, 2014
October 23, 2014
October 23, 2014

Nearby

Snow Depth

Station Depth Elevation
No new snow has been reported.

Earthquake Activity

City Distance Mag. Time & Date
No recent earthquake activity has been reported nearby.
Minimum magnitude displayed is 2.5.

Coastal Water Temperatures

Place Temperature
No Stations Reporting

Nearby Weather Stations